Time;durP1;ratioP1;P1;durP2;ratioP2;P2;SDS_P1;SDS_P2;PMS_P1;PMS_P2;Temp;Humidity;BMP_temperature;BMP_pressure;BME280_temperature;BME280_humidity;BME280_pressure;Samples;Min_cycle;Max_cycle;Signal;HPM_P1;HPM_P2
2021/11/28 00:01:43;;;;;;;44.38;25.02;;;;;;;9.11;63.48;98096.75;4468594;32;34847;-50
2021/11/28 00:04:13;;;;;;;43.53;24.23;;;;;;;9.05;63.62;98110.72;4467452;32;34113;-51
2021/11/28 00:06:52;;;;;;;43.72;24.80;;;;;;;9.11;63.49;98101.91;4468465;32;33760;-53
2021/11/28 00:09:33;;;;;;;45.05;23.65;;;;;;;9.20;63.24;98104.34;4468387;32;34740;-49
2021/11/28 00:14:46;;;;;;;44.42;24.35;;;;;;;9.13;63.53;98100.19;4466564;32;34275;-47
2021/11/28 00:17:14;;;;;;;41.08;22.85;;;;;;;9.17;63.35;98088.84;4468715;32;34710;-50
2021/11/28 00:19:42;;;;;;;44.35;23.50;;;;;;;9.16;63.41;98090.56;4467158;32;35275;-50
2021/11/28 00:22:10;;;;;;;40.20;22.60;;;;;;;9.14;63.47;98092.34;4468712;32;35085;-47
2021/11/28 00:24:38;;;;;;;40.38;22.65;;;;;;;9.15;63.58;98080.25;4468445;32;34036;-54
2021/11/28 00:27:06;;;;;;;42.55;23.83;;;;;;;9.25;63.12;98072.22;4468422;32;34299;-47
2021/11/28 00:29:40;;;;;;;39.88;22.50;;;;;;;9.40;62.79;98064.09;4468315;32;35596;-53
2021/11/28 00:32:09;;;;;;;44.75;25.33;;;;;;;9.21;63.28;98068.00;4468427;32;34450;-50
2021/11/28 00:34:36;;;;;;;43.67;23.33;;;;;;;9.21;63.50;98085.28;4467222;32;34174;-52
2021/11/28 00:37:04;;;;;;;44.05;24.30;;;;;;;9.18;63.79;98086.19;4468387;32;34917;-49
2021/11/28 00:39:31;;;;;;;43.67;23.52;;;;;;;9.17;63.92;98071.53;4468343;32;34678;-47
2021/11/28 00:42:00;;;;;;;46.42;25.75;;;;;;;9.23;63.72;98067.94;4468362;32;35187;-49
2021/11/28 00:44:30;;;;;;;47.05;24.02;;;;;;;9.18;63.87;98074.97;4468440;32;34452;-50
2021/11/28 00:46:57;;;;;;;49.55;25.15;;;;;;;9.42;63.26;98064.03;4468488;32;34016;-53
2021/11/28 00:49:26;;;;;;;43.90;23.45;;;;;;;9.25;63.77;98074.81;4468133;32;34878;-49
2021/11/28 00:51:57;;;;;;;45.95;23.50;;;;;;;9.15;64.22;98075.06;4468164;32;35038;-54
2021/11/28 00:54:28;;;;;;;47.25;23.98;;;;;;;9.24;64.00;98080.03;4468209;32;32757;-51
2021/11/28 00:56:57;;;;;;;43.22;23.48;;;;;;;9.21;64.14;98067.13;4468062;32;34451;-49
2021/11/28 00:59:26;;;;;;;47.83;24.58;;;;;;;9.25;64.12;98066.16;4468043;32;35075;-47
2021/11/28 01:01:53;;;;;;;52.55;24.35;;;;;;;9.27;64.09;98056.63;4468197;32;34222;-50
2021/11/28 01:04:22;;;;;;;51.08;24.80;;;;;;;9.16;64.59;98061.19;4467940;32;33467;-49
2021/11/28 01:06:49;;;;;;;52.33;24.67;;;;;;;9.13;64.74;98054.31;4468172;32;34509;-51
2021/11/28 01:09:17;;;;;;;53.80;27.27;;;;;;;9.23;64.44;98062.75;4467883;32;36408;-48
2021/11/28 01:11:45;;;;;;;48.90;24.70;;;;;;;9.13;64.80;98062.09;4468119;32;34260;-52
2021/11/28 01:14:14;;;;;;;52.80;26.52;;;;;;;9.20;64.51;98047.28;4468011;32;33483;-47
2021/11/28 01:16:44;;;;;;;55.15;27.05;;;;;;;9.21;64.46;98056.75;4467766;32;33750;-46
2021/11/28 01:19:12;;;;;;;52.92;26.33;;;;;;;9.22;64.39;98055.88;4467792;32;35254;-48
2021/11/28 01:21:56;;;;;;;48.92;25.75;;;;;;;9.18;64.52;98055.06;4466686;32;35181;-49
2021/11/28 01:24:25;;;;;;;52.90;26.23;;;;;;;9.01;64.93;98052.00;4467684;32;34180;-52
2021/11/28 01:26:52;;;;;;;55.75;26.92;;;;;;;9.02;65.06;98042.47;4468384;32;33811;-50
2021/11/28 01:29:22;;;;;;;55.17;26.23;;;;;;;9.15;64.54;98051.72;4469458;32;35749;-48
2021/11/28 01:31:49;;;;;;;58.30;26.62;;;;;;;9.17;64.45;98050.78;4469556;32;34275;-49
2021/11/28 01:34:17;;;;;;;52.95;25.05;;;;;;;9.20;64.05;98049.87;4469892;32;33491;-48
2021/11/28 01:36:45;;;;;;;55.85;27.48;;;;;;;8.97;64.93;98059.88;4469605;32;34715;-50
2021/11/28 01:39:12;;;;;;;56.85;27.23;;;;;;;8.93;65.18;98053.91;4468219;32;34446;-52
2021/11/28 01:41:44;;;;;;;51.90;26.07;;;;;;;9.03;65.07;98049.37;4469553;32;35940;-51
2021/11/28 01:44:14;;;;;;;56.15;27.70;;;;;;;9.21;64.47;98054.16;4469887;32;33145;-50
2021/11/28 01:46:41;;;;;;;58.72;27.75;;;;;;;9.08;64.73;98057.94;4469552;32;34856;-52
2021/11/28 01:49:10;;;;;;;52.10;25.37;;;;;;;9.07;64.89;98066.56;4469434;32;35508;-51
2021/11/28 01:51:39;;;;;;;56.67;26.30;;;;;;;9.16;64.67;98053.41;4469345;32;34880;-50
2021/11/28 01:54:14;;;;;;;53.78;26.40;;;;;;;9.17;64.50;98052.53;4468464;32;33369;-51
2021/11/28 01:56:46;;;;;;;62.42;28.50;;;;;;;8.85;65.52;98051.47;4469507;32;33990;-46
2021/11/28 01:59:15;;;;;;;61.10;28.10;;;;;;;8.84;65.61;98047.16;4469714;32;33995;-49
2021/11/28 02:01:44;;;;;;;53.78;26.33;;;;;;;9.01;65.28;98051.16;4469385;32;35121;-47
2021/11/28 02:04:15;;;;;;;62.53;27.62;;;;;;;9.07;65.07;98049.28;4468413;32;33276;-47
2021/11/28 02:06:45;;;;;;;59.17;27.58;;;;;;;9.16;64.79;98045.62;4469614;32;34038;-47
2021/11/28 02:09:13;;;;;;;61.37;28.35;;;;;;;9.13;64.80;98040.53;4469635;32;35751;-53
2021/11/28 02:11:43;;;;;;;63.70;28.33;;;;;;;9.08;65.11;98050.97;4469418;32;34212;-52
2021/11/28 02:14:10;;;;;;;62.05;28.73;;;;;;;9.13;64.98;98056.09;4469503;32;34513;-50
2021/11/28 02:16:40;;;;;;;60.05;28.58;;;;;;;9.24;64.70;98048.91;4469420;32;34212;-48
2021/11/28 02:19:09;;;;;;;58.35;27.50;;;;;;;9.16;64.86;98045.62;4468109;32;34693;-52
2021/11/28 02:21:37;;;;;;;57.15;26.52;;;;;;;9.14;64.95;98042.22;4469561;32;34778;-53
2021/11/28 02:24:05;;;;;;;58.80;26.95;;;;;;;9.13;65.09;98050.91;4469265;32;33443;-52
2021/11/28 02:26:32;;;;;;;62.15;27.75;;;;;;;9.16;64.99;98051.66;4469251;32;33371;-52
2021/11/28 02:29:01;;;;;;;59.92;28.27;;;;;;;9.30;64.54;98056.53;4469289;32;35720;-48
2021/11/28 02:31:29;;;;;;;66.82;27.95;;;;;;;9.25;64.62;98040.22;4469320;32;35763;-51
2021/11/28 02:33:57;;;;;;;58.80;26.75;;;;;;;9.29;64.46;98036.69;4469208;32;34456;-48
2021/11/28 02:36:24;;;;;;;58.03;27.08;;;;;;;9.19;64.87;98030.84;4468773;32;34664;-47
2021/11/28 02:38:53;;;;;;;67.53;27.75;;;;;;;9.28;64.69;98040.16;4468942;32;35544;-50
2021/11/28 02:41:22;;;;;;;63.53;29.73;;;;;;;9.23;64.92;98029.03;4469374;32;35064;-49
2021/11/28 02:43:50;;;;;;;64.00;28.70;;;;;;;9.16;65.28;98035.25;4438136;32;34335;-52
2021/11/28 02:46:17;;;;;;;68.30;27.62;;;;;;;9.22;64.97;98025.56;4437960;32;34805;-50
2021/11/28 02:48:45;;;;;;;60.25;29.15;;;;;;;9.18;65.07;98030.88;4438140;32;34675;-47
2021/11/28 02:51:13;;;;;;;60.67;28.23;;;;;;;9.41;64.39;98028.63;4438107;32;34640;-47
2021/11/28 02:53:40;;;;;;;61.40;28.23;;;;;;;9.36;64.54;98027.87;4438066;32;33456;-52
2021/11/28 02:56:08;;;;;;;65.25;29.27;;;;;;;9.20;65.07;98029.13;4438282;32;34713;-52
2021/11/28 02:58:37;;;;;;;62.67;27.85;;;;;;;9.27;64.99;98031.53;4436607;32;34656;-49
2021/11/28 03:01:14;;;;;;;66.55;28.02;;;;;;;9.35;64.74;98028.75;4437760;32;35158;-47
2021/11/28 03:03:45;;;;;;;66.10;28.55;;;;;;;9.39;64.53;98022.59;4438249;32;33836;-48
2021/11/28 03:06:13;;;;;;;59.55;27.90;;;;;;;9.34;64.69;98020.09;4437842;32;34117;-50
2021/11/28 03:08:40;;;;;;;64.40;27.20;;;;;;;9.22;65.10;98022.16;4437827;32;34826;-48
2021/11/28 03:11:13;;;;;;;68.57;27.75;;;;;;;9.29;65.06;98026.31;4437805;32;35207;-49
2021/11/28 03:13:44;;;;;;;68.75;29.63;;;;;;;9.31;64.88;98030.59;4437199;32;33991;-50
2021/11/28 03:16:16;;;;;;;63.47;29.00;;;;;;;9.27;65.08;98038.47;4437922;32;34054;-50
2021/11/28 03:18:44;;;;;;;68.72;28.77;;;;;;;9.35;65.01;98028.75;4436731;32;35563;-47
2021/11/28 03:21:17;;;;;;;63.60;28.23;;;;;;;9.39;64.85;98033.84;4436742;32;34463;-51
2021/11/28 03:23:47;;;;;;;62.75;29.08;;;;;;;9.42;64.79;98027.72;4438308;32;34941;-50
2021/11/28 03:26:20;;;;;;;65.55;28.52;;;;;;;9.34;65.02;98027.06;4437805;32;34812;-49
2021/11/28 03:29:02;;;;;;;65.65;28.00;;;;;;;9.39;64.85;98027.78;4436579;32;35876;-51
2021/11/28 03:31:41;;;;;;;67.80;28.40;;;;;;;9.29;65.36;98023.72;4436888;32;34222;-47
2021/11/28 03:34:11;;;;;;;63.63;28.33;;;;;;;9.32;65.26;98021.88;4437092;32;33015;-49
2021/11/28 03:36:43;;;;;;;62.88;28.73;;;;;;;9.34;65.19;98019.28;4437770;32;33864;-52
2021/11/28 03:39:13;;;;;;;59.90;27.92;;;;;;;9.45;64.88;98030.25;4437959;32;35061;-48
2021/11/28 03:41:46;;;;;;;61.95;28.25;;;;;;;9.42;64.98;98022.53;4440737;32;34860;-54
2021/11/28 03:44:13;;;;;;;;;;;;;;;9.31;65.29;98014.16;4468122;32;33754;-51
2021/11/28 03:46:47;;;;;;;62.58;25.58;;;;;;;9.33;65.34;98014.97;4469154;32;34946;-46
2021/11/28 03:49:15;;;;;;;65.65;27.95;;;;;;;9.35;65.17;98019.22;4469131;32;34861;-48
2021/11/28 03:51:42;;;;;;;62.35;28.33;;;;;;;9.32;65.25;98014.09;4468883;32;34188;-51
2021/11/28 03:54:10;;;;;;;59.15;27.13;;;;;;;9.35;65.12;98014.03;4468922;32;34505;-52
2021/11/28 03:56:38;;;;;;;64.00;26.92;;;;;;;9.34;65.13;97996.75;4468997;32;34322;-53
2021/11/28 03:59:05;;;;;;;59.72;26.80;;;;;;;9.44;64.86;97998.25;4468894;32;35745;-49
2021/11/28 04:01:33;;;;;;;64.78;27.33;;;;;;;9.35;65.08;98001.06;4468982;32;34525;-49
2021/11/28 04:04:01;;;;;;;63.58;27.85;;;;;;;9.37;65.10;98001.88;4467828;32;33478;-52
2021/11/28 04:06:38;;;;;;;60.80;26.92;;;;;;;9.28;65.33;98002.09;4468758;32;34657;-50
2021/11/28 04:09:05;;;;;;;65.18;27.13;;;;;;;9.33;65.14;98008.03;4468873;32;34822;-48
2021/11/28 04:11:33;;;;;;;59.72;25.62;;;;;;;9.21;65.57;98003.13;4468700;32;34918;-52
2021/11/28 04:14:01;;;;;;;55.72;24.58;;;;;;;9.30;65.18;98000.31;4467595;32;34037;-52
2021/11/28 04:16:29;;;;;;;57.45;25.73;;;;;;;9.18;65.72;97999.75;4468633;32;34850;-49
2021/11/28 04:18:59;;;;;;;51.72;23.98;;;;;;;9.19;65.68;98004.06;4467288;32;34872;-47
2021/11/28 04:21:27;;;;;;;58.03;25.42;;;;;;;9.20;65.65;97995.41;4468553;32;34453;-49
2021/11/28 04:23:55;;;;;;;55.78;25.27;;;;;;;9.26;65.40;97996.09;4468687;32;33523;-51
2021/11/28 04:26:23;;;;;;;57.03;23.90;;;;;;;9.16;65.83;97998.94;4467555;32;34318;-50
2021/11/28 04:28:51;;;;;;;57.25;24.95;;;;;;;9.22;65.66;97994.44;4468483;32;34673;-55
2021/11/28 04:31:20;;;;;;;49.53;22.92;;;;;;;9.17;65.65;97998.06;4468640;32;34863;-48
2021/11/28 04:33:48;;;;;;;56.63;25.67;;;;;;;9.13;65.95;97993.84;4468562;32;33229;-54
2021/11/28 04:36:15;;;;;;;54.60;24.67;;;;;;;9.07;66.17;98004.34;4468445;32;34476;-50
2021/11/28 04:38:43;;;;;;;52.55;23.70;;;;;;;9.06;66.29;97998.28;4468323;32;34669;-49
2021/11/28 04:41:11;;;;;;;67.70;25.52;;;;;;;9.10;66.25;97991.31;4468043;32;34421;-50
2021/11/28 04:43:41;;;;;;;52.70;24.73;;;;;;;9.29;65.64;98000.38;4468281;32;33637;-49
2021/11/28 04:46:09;;;;;;;54.55;24.17;;;;;;;9.21;65.87;98007.47;4468387;32;33939;-55
2021/11/28 04:48:37;;;;;;;57.30;23.42;;;;;;;9.09;66.34;97993.03;4468230;32;35031;-49
2021/11/28 04:51:06;;;;;;;56.37;24.40;;;;;;;9.27;65.79;97987.41;4468357;32;34166;-50
2021/11/28 04:53:34;;;;;;;63.20;24.77;;;;;;;9.15;66.16;97981.69;4468479;32;33630;-46
2021/11/28 04:56:02;;;;;;;53.85;23.85;;;;;;;9.19;66.13;97970.34;4468136;32;33891;-48
2021/11/28 04:58:31;;;;;;;54.95;24.85;;;;;;;9.27;65.61;97965.84;4468112;32;35380;-51
2021/11/28 05:00:59;;;;;;;49.03;23.90;;;;;;;9.14;66.11;97975.63;4467308;32;35174;-49
2021/11/28 05:03:26;;;;;;;53.20;24.83;;;;;;;9.21;66.17;97989.31;4466381;32;33487;-49
2021/11/28 05:05:57;;;;;;;55.67;25.08;;;;;;;9.19;66.22;98001.47;4467924;32;33846;-51
2021/11/28 05:08:26;;;;;;;54.72;24.63;;;;;;;9.19;66.40;97998.88;4467458;32;34619;-52
2021/11/28 05:10:54;;;;;;;54.83;25.25;;;;;;;9.14;66.41;98013.69;4467742;32;34242;-48
2021/11/28 05:13:22;;;;;;;51.70;23.67;;;;;;;9.11;66.64;98005.97;4467898;32;34280;-50
2021/11/28 05:15:51;;;;;;;55.40;24.58;;;;;;;9.28;66.13;97994.31;4467682;32;34117;-49
2021/11/28 05:18:20;;;;;;;53.90;25.20;;;;;;;9.25;66.10;97998.72;4467554;32;34587;-49
2021/11/28 05:20:49;;;;;;;50.40;25.17;;;;;;;9.27;66.01;98002.16;4467843;32;34435;-48
2021/11/28 05:23:17;;;;;;;53.60;25.08;;;;;;;9.17;66.52;97987.69;4466823;32;34365;-47
2021/11/28 05:25:45;;;;;;;56.67;23.87;;;;;;;9.24;66.35;97986.66;4467509;32;34518;-47
2021/11/28 05:28:13;;;;;;;50.17;23.33;;;;;;;9.31;66.08;97977.84;4467565;32;34841;-54
2021/11/28 05:30:41;;;;;;;52.00;24.37;;;;;;;9.28;66.21;97972.72;4467625;32;35103;-48
2021/11/28 05:33:11;;;;;;;81.97;23.38;;;;;;;9.19;66.67;97972.94;4467803;32;33349;-48
2021/11/28 05:35:43;;;;;;;53.67;24.93;;;;;;;9.36;66.03;97976.84;4467823;32;32256;-52
2021/11/28 05:38:12;;;;;;;52.20;23.55;;;;;;;9.38;65.88;97971.59;4467293;32;35700;-50
2021/11/28 05:40:42;;;;;;;53.28;25.20;;;;;;;9.21;66.47;97956.44;4466133;32;33942;-53
2021/11/28 05:43:11;;;;;;;50.95;23.20;;;;;;;9.24;66.54;97966.75;4466362;32;33525;-48
2021/11/28 05:45:39;;;;;;;51.63;24.20;;;;;;;9.25;66.56;97972.78;4467411;32;34531;-49
2021/11/28 05:48:14;;;;;;;50.60;22.65;;;;;;;9.24;66.67;97965.91;4467539;32;33547;-52
2021/11/28 05:50:41;;;;;;;51.45;23.65;;;;;;;9.25;66.63;97965.00;4467515;32;35198;-52
2021/11/28 05:53:09;;;;;;;55.30;22.90;;;;;;;9.24;66.70;97958.13;4467428;32;33296;-51
2021/11/28 05:55:38;;;;;;;49.38;22.92;;;;;;;9.36;66.30;97966.47;4466117;32;34745;-51
2021/11/28 05:58:08;;;;;;;45.08;21.85;;;;;;;9.32;66.46;97974.34;4466108;32;35136;-53
2021/11/28 06:00:35;;;;;;;50.00;22.25;;;;;;;9.37;66.38;97980.28;4466937;32;34191;-50
2021/11/28 06:03:03;;;;;;;46.90;22.83;;;;;;;9.34;66.41;97976.00;4467306;32;33401;-48
2021/11/28 06:05:33;;;;;;;49.08;20.92;;;;;;;9.49;66.07;97982.56;4467189;32;34225;-49
2021/11/28 06:08:01;;;;;;;48.45;21.58;;;;;;;9.47;66.03;97973.97;4467115;32;34741;-48
2021/11/28 06:10:30;;;;;;;45.45;21.27;;;;;;;9.40;66.31;97983.66;4466958;32;34471;-51
2021/11/28 06:12:57;;;;;;;56.58;22.55;;;;;;;9.43;66.38;97993.12;4468329;32;34385;-48
2021/11/28 06:15:25;;;;;;;44.53;20.95;;;;;;;9.53;65.99;98000.62;4469077;32;34227;-52
2021/11/28 06:17:56;;;;;;;48.85;21.75;;;;;;;9.54;66.07;97993.69;4469107;32;33091;-49
2021/11/28 06:20:24;;;;;;;47.90;21.55;;;;;;;9.29;66.82;97982.22;4469455;32;35125;-51
2021/11/28 06:22:53;;;;;;;49.80;21.83;;;;;;;9.27;67.06;97978.81;4469495;32;33892;-49
2021/11/28 06:25:22;;;;;;;43.45;21.55;;;;;;;9.29;67.12;97975.28;4469665;32;33642;-50
2021/11/28 06:28:07;;;;;;;51.58;22.00;;;;;;;9.33;66.97;97976.06;4469155;32;35837;-51
2021/11/28 06:30:35;;;;;;;49.45;22.27;;;;;;;9.31;67.08;97975.25;4468234;32;35791;-54
2021/11/28 06:33:04;;;;;;;43.80;22.23;;;;;;;9.30;67.04;97976.13;4469169;32;34461;-48
2021/11/28 06:35:32;;;;;;;48.45;20.92;;;;;;;9.33;66.99;97969.12;4469377;32;34650;-51
2021/11/28 06:38:01;;;;;;;44.92;23.33;;;;;;;9.30;67.11;97971.78;4469613;32;35692;-51
2021/11/28 06:40:42;;;;;;;47.15;21.30;;;;;;;9.29;67.13;97970.09;4456973;32;34539;-48
2021/11/28 06:43:14;;;;;;;63.40;23.25;;;;;;;9.38;66.93;97984.59;4469319;32;34456;-54
2021/11/28 06:45:41;;;;;;;50.03;22.48;;;;;;;9.45;66.53;97988.72;4469607;32;34427;-50
2021/11/28 06:48:09;;;;;;;49.10;22.70;;;;;;;9.21;67.40;97987.56;4469273;32;35616;-49
2021/11/28 06:50:37;;;;;;;49.83;23.45;;;;;;;9.36;67.03;97976.00;4468046;32;34524;-49
2021/11/28 06:53:06;;;;;;;58.83;23.87;;;;;;;9.33;67.07;97987.28;4469402;32;33532;-52
2021/11/28 06:55:36;;;;;;;50.12;23.05;;;;;;;9.39;67.02;97981.06;4469446;32;32667;-49
2021/11/28 06:58:05;;;;;;;51.83;23.38;;;;;;;9.31;67.31;97978.69;4468269;32;34723;-52
2021/11/28 07:00:33;;;;;;;58.80;23.05;;;;;;;9.34;67.31;97982.97;4469339;32;34171;-51
2021/11/28 07:03:01;;;;;;;47.60;23.55;;;;;;;9.55;66.54;97982.44;4469333;32;34206;-46
2021/11/28 07:05:31;;;;;;;65.32;23.95;;;;;;;9.39;67.00;97981.06;4469372;32;33745;-50
2021/11/28 07:07:59;;;;;;;50.50;23.92;;;;;;;9.44;66.92;97979.22;4469374;32;35325;-51
2021/11/28 07:10:26;;;;;;;51.03;24.05;;;;;;;9.50;66.97;97963.53;4468980;32;34767;-50
2021/11/28 07:12:57;;;;;;;48.85;22.70;;;;;;;9.40;67.19;97962.03;4469088;32;33421;-51
2021/11/28 07:15:25;;;;;;;47.67;22.75;;;;;;;9.47;67.12;97961.00;4468987;32;33785;-50
2021/11/28 07:17:52;;;;;;;55.80;24.42;;;;;;;9.52;66.88;97957.41;4469158;32;34761;-48
2021/11/28 07:20:21;;;;;;;53.28;24.33;;;;;;;9.57;66.99;97962.47;4469273;32;32714;-53
2021/11/28 07:22:48;;;;;;;51.63;24.25;;;;;;;9.41;67.57;97953.38;4467841;32;33857;-54
2021/11/28 07:25:17;;;;;;;51.40;24.50;;;;;;;9.47;67.55;97958.41;4469019;32;34124;-52
2021/11/28 07:27:45;;;;;;;60.78;25.00;;;;;;;9.54;67.43;97955.63;4469287;32;35767;-51
2021/11/28 07:30:12;;;;;;;55.10;24.02;;;;;;;9.54;67.36;97949.56;4469065;32;34220;-49
2021/11/28 07:32:40;;;;;;;51.55;24.70;;;;;;;9.50;67.48;97958.34;4469124;32;35010;-54
2021/11/28 07:35:10;;;;;;;56.30;24.77;;;;;;;9.51;67.63;97950.50;4469364;32;33884;-51
2021/11/28 07:37:39;;;;;;;48.35;23.58;;;;;;;9.67;67.07;97950.97;4468903;32;35085;-52
2021/11/28 07:40:08;;;;;;;57.08;24.48;;;;;;;9.64;67.17;97957.97;4468287;32;34419;-54
2021/11/28 07:42:36;;;;;;;49.58;23.25;;;;;;;9.75;66.71;97946.41;4454749;32;33412;-53
2021/11/28 07:45:08;;;;;;;48.90;25.08;;;;;;;9.70;67.17;97945.69;4469295;32;32254;-51
2021/11/28 07:47:38;;;;;;;50.05;25.05;;;;;;;9.60;67.46;97941.66;4469235;32;33021;-53
2021/11/28 07:50:09;;;;;;;48.70;24.87;;;;;;;9.75;67.38;97940.38;4468812;32;34346;-53
2021/11/28 07:52:37;;;;;;;49.67;24.37;;;;;;;9.65;67.56;97936.34;4467246;32;34052;-46
2021/11/28 07:55:06;;;;;;;59.20;24.35;;;;;;;9.48;68.10;97949.75;4468843;32;34211;-50
2021/11/28 07:57:35;;;;;;;59.88;21.15;;;;;;;9.51;68.37;97947.03;4469114;32;35060;-50
2021/11/28 08:00:05;;;;;;;82.57;30.75;;;;;;;9.66;80.79;97933.69;4469086;32;32932;-48
2021/11/28 08:02:35;;;;;;;57.15;23.55;;;;;;;10.05;74.92;97931.78;4467828;32;33185;-47
2021/11/28 08:05:05;;;;;;;51.50;24.77;;;;;;;10.13;68.26;97924.62;4469403;32;33458;-52
2021/11/28 08:07:37;;;;;;;50.33;24.05;;;;;;;9.93;68.16;97917.38;4468134;32;33139;-50
2021/11/28 08:10:07;;;;;;;44.78;21.85;;;;;;;9.90;68.16;97922.66;4468983;32;34822;-50
2021/11/28 08:12:34;;;;;;;49.60;23.38;;;;;;;9.64;69.14;97911.25;4467365;32;33495;-50
2021/11/28 08:15:05;;;;;;;48.83;23.45;;;;;;;9.77;68.78;97908.28;4467761;32;33755;-49
2021/11/28 08:17:37;;;;;;;47.40;23.17;;;;;;;9.90;68.22;97896.69;4468870;32;34685;-51
2021/11/28 08:20:06;;;;;;;59.00;23.00;;;;;;;9.84;68.34;97888.22;4468784;32;34893;-49
2021/11/28 08:22:34;;;;;;;48.47;23.15;;;;;;;9.67;69.08;97893.00;4467917;32;33509;-48
2021/11/28 08:25:03;;;;;;;49.90;23.35;;;;;;;9.72;69.27;97902.41;4468121;32;34933;-48
2021/11/28 08:27:30;;;;;;;53.55;23.77;;;;;;;9.74;69.23;97902.34;4468790;32;35202;-49
2021/11/28 08:30:03;;;;;;;46.80;21.73;;;;;;;9.84;68.85;97904.63;4468951;32;35181;-49
2021/11/28 08:32:37;;;;;;;48.65;23.70;;;;;;;9.80;69.15;97899.56;4469038;32;33238;-47
2021/11/28 08:35:12;;;;;;;45.45;22.52;;;;;;;9.76;69.45;97898.81;4468299;32;32094;-51
2021/11/28 08:37:40;;;;;;;54.38;22.33;;;;;;;9.93;69.13;97888.81;4468379;32;35757;-52
2021/11/28 08:40:09;;;;;;;46.10;21.70;;;;;;;10.20;68.25;97880.25;4466720;32;34311;-51
2021/11/28 08:42:37;;;;;;;38.38;19.30;;;;;;;9.98;69.41;97889.53;4465192;32;33474;-51
2021/11/28 08:45:07;;;;;;;30.52;16.85;;;;;;;10.08;69.39;97884.91;4467310;32;34691;-54
2021/11/28 08:47:35;;;;;;;24.98;15.05;;;;;;;10.07;69.78;97872.84;4467240;32;34677;-48
2021/11/28 08:50:08;;;;;;;28.65;17.02;;;;;;;10.11;69.83;97875.34;4467473;32;34789;-51
2021/11/28 08:52:36;;;;;;;30.35;17.33;;;;;;;10.08;69.95;97882.31;4467365;32;34439;-49
2021/11/28 08:55:05;;;;;;;29.10;16.50;;;;;;;10.17;69.88;97895.94;4466860;32;34720;-48
2021/11/28 08:57:33;;;;;;;26.42;14.57;;;;;;;10.15;69.96;97892.53;4468381;32;35878;-47
2021/11/28 09:00:01;;;;;;;24.15;12.98;;;;;;;10.12;70.10;97890.03;4468649;32;34484;-49
2021/11/28 09:02:28;;;;;;;20.20;11.98;;;;;;;10.29;69.49;97904.28;4468378;32;33518;-47
2021/11/28 09:04:56;;;;;;;21.30;12.95;;;;;;;10.21;69.52;97894.12;4467164;32;34693;-50
2021/11/28 09:07:23;;;;;;;23.15;13.25;;;;;;;10.27;69.31;97898.28;4467843;32;35779;-49
2021/11/28 09:09:52;;;;;;;26.30;15.57;;;;;;;10.41;68.98;97890.94;4468379;32;34305;-48
2021/11/28 09:12:19;;;;;;;22.17;12.52;;;;;;;10.45;68.92;97896.00;4467650;32;33283;-47
2021/11/28 09:14:47;;;;;;;21.40;12.37;;;;;;;10.36;69.33;97895.41;4466991;32;34291;-54
2021/11/28 09:17:16;;;;;;;17.52;11.38;;;;;;;10.34;69.55;97889.41;4466905;32;35222;-52
2021/11/28 09:19:57;;;;;;;19.23;11.60;;;;;;;10.32;69.71;97875.63;4467669;32;34154;-50
2021/11/28 09:25:01;;;;;;;18.15;11.02;;;;;;;10.70;68.66;97880.50;4465920;32;34323;-52
2021/11/28 09:27:29;;;;;;;16.30;9.68;;;;;;;10.69;68.49;97873.59;4466426;32;34628;-47
2021/11/28 09:29:57;;;;;;;15.43;9.75;;;;;;;10.74;68.22;97882.13;4464377;32;35214;-51
2021/11/28 09:32:24;;;;;;;17.83;10.52;;;;;;;10.78;68.11;97889.78;4464985;32;34264;-50
2021/11/28 09:34:52;;;;;;;21.17;10.77;;;;;;;10.71;68.38;97884.81;4465613;32;34280;-52
2021/11/28 09:37:20;;;;;;;15.05;11.55;;;;;;;10.75;68.43;97878.59;4465828;32;34803;-49
2021/11/28 09:39:47;;;;;;;15.90;9.60;;;;;;;10.81;68.36;97865.44;4466191;32;35550;-51
2021/11/28 09:42:22;;;;;;;15.73;9.63;;;;;;;10.80;68.43;97848.09;4465946;32;34210;-53
2021/11/28 09:44:50;;;;;;;14.50;9.68;;;;;;;10.85;68.43;97856.63;4451705;32;34440;-50
2021/11/28 09:47:18;;;;;;;16.15;9.48;;;;;;;11.04;67.83;97849.91;4467615;32;35185;-53
2021/11/28 09:49:45;;;;;;;14.90;9.68;;;;;;;11.04;67.95;97865.53;4468438;32;33817;-53
2021/11/28 09:52:18;;;;;;;13.77;9.32;;;;;;;11.13;67.60;97854.81;4469447;32;34253;-52
2021/11/28 09:54:47;;;;;;;17.50;11.25;;;;;;;11.08;67.76;97846.31;4468187;32;35140;-53
2021/11/28 09:57:17;;;;;;;15.10;10.70;;;;;;;11.16;67.56;97839.13;4467154;32;35736;-53
2021/11/28 09:59:45;;;;;;;15.30;10.73;;;;;;;10.94;68.55;97832.91;4467413;32;35436;-48
2021/11/28 10:02:17;;;;;;;15.88;11.43;;;;;;;11.14;67.92;97840.91;4468366;32;33946;-47
2021/11/28 10:04:45;;;;;;;15.07;10.30;;;;;;;11.34;67.18;97822.00;4467650;32;34119;-50
2021/11/28 10:07:14;;;;;;;14.55;10.30;;;;;;;11.12;67.82;97814.09;4465675;32;34778;-51
2021/11/28 10:09:41;;;;;;;18.23;11.23;;;;;;;11.38;67.03;97808.00;4469278;32;34970;-51
2021/11/28 10:12:15;;;;;;;20.42;13.02;;;;;;;11.18;73.76;97806.09;4468076;32;33724;-50
2021/11/28 10:14:48;;;;;;;19.58;12.10;;;;;;;11.50;70.63;97790.19;4468342;32;34457;-51
2021/11/28 10:17:18;;;;;;;16.45;11.48;;;;;;;11.82;67.45;97788.22;4467225;32;35014;-53
2021/11/28 10:19:46;;;;;;;16.48;11.25;;;;;;;11.58;67.98;97795.97;4466745;32;34888;-53
2021/11/28 10:22:13;;;;;;;16.02;10.93;;;;;;;11.72;66.47;97794.69;4466759;32;33924;-54
2021/11/28 10:24:53;;;;;;;16.25;10.95;;;;;;;11.83;65.96;97782.09;4467865;32;34696;-53
2021/11/28 10:27:32;;;;;;;17.73;10.70;;;;;;;11.70;66.34;97767.81;4465095;32;35672;-49
2021/11/28 10:29:59;;;;;;;17.52;11.38;;;;;;;11.87;66.15;97752.41;4467024;32;34808;-49
2021/11/28 10:32:27;;;;;;;16.70;11.12;;;;;;;11.84;66.01;97765.59;4468314;32;34167;-50
2021/11/28 10:34:54;;;;;;;14.85;11.05;;;;;;;11.89;66.45;97763.62;4469049;32;34836;-49
2021/11/28 10:37:23;;;;;;;17.50;12.20;;;;;;;11.96;66.33;97759.87;4468784;32;34972;-53
2021/11/28 10:39:58;;;;;;;16.20;11.52;;;;;;;12.07;65.50;97744.72;4467328;32;35263;-51
2021/11/28 10:42:33;;;;;;;17.08;10.88;;;;;;;12.21;65.36;97745.87;4467430;32;33366;-52
2021/11/28 10:45:14;;;;;;;18.75;12.40;;;;;;;12.44;65.04;97734.53;4467887;32;34342;-53
2021/11/28 10:47:56;;;;;;;17.02;11.50;;;;;;;12.57;64.53;97727.94;4467967;32;34996;-51
2021/11/28 10:50:34;;;;;;;17.30;12.23;;;;;;;12.52;65.03;97722.03;4466723;32;34917;-54
2021/11/28 10:53:19;;;;;;;17.85;12.07;;;;;;;12.72;64.20;97719.44;4453299;32;32811;-55
2021/11/28 10:55:49;;;;;;;17.37;12.30;;;;;;;12.53;64.17;97720.25;4465621;32;34165;-50
2021/11/28 10:58:20;;;;;;;17.35;11.90;;;;;;;12.62;63.70;97717.31;4467577;32;34673;-54
2021/11/28 11:00:50;;;;;;;16.30;10.75;;;;;;;12.54;64.02;97721.97;4467626;32;33922;-50
2021/11/28 11:03:29;;;;;;;15.18;11.43;;;;;;;12.49;64.40;97723.91;4468494;32;33693;-53
2021/11/28 11:06:16;;;;;;;18.48;12.18;;;;;;;12.45;64.60;97727.56;4469066;32;34867;-54
2021/11/28 11:08:45;;;;;;;14.87;10.90;;;;;;;12.76;63.69;97717.56;4467721;32;34790;-52
2021/11/28 11:11:14;;;;;;;15.85;11.57;;;;;;;12.76;63.83;97723.66;4468353;32;35147;-51
2021/11/28 11:13:57;;;;;;;15.82;11.45;;;;;;;12.61;63.90;97715.59;4467081;32;33654;-52
2021/11/28 11:16:42;;;;;;;16.67;11.95;;;;;;;12.66;64.02;97713.66;4468139;32;34260;-55
2021/11/28 11:19:50;;;;;;;19.20;12.43;;;;;;;12.56;64.38;97713.19;4468064;32;34861;-53
2021/11/28 11:22:25;;;;;;;14.90;10.98;;;;;;;12.64;64.27;97716.31;4467784;32;34553;-50
2021/11/28 11:25:15;;;;;;;16.08;12.25;;;;;;;12.83;63.66;97709.44;4468117;32;34543;-49
2021/11/28 11:27:44;;;;;;;22.70;17.83;;;;;;;12.89;63.30;97711.78;4468385;32;35129;-49
2021/11/28 11:30:25;;;;;;;20.58;13.98;;;;;;;12.88;63.58;97709.25;4469406;32;34704;-50
2021/11/28 11:33:01;;;;;;;19.70;13.88;;;;;;;12.73;64.11;97691.63;4467603;32;35864;-55
2021/11/28 11:35:44;;;;;;;18.80;12.95;;;;;;;12.87;63.74;97695.34;4467977;32;33349;-53
2021/11/28 11:38:15;;;;;;;17.75;11.75;;;;;;;12.90;63.61;97703.03;4467671;32;33296;-53
2021/11/28 11:40:43;;;;;;;19.45;10.52;;;;;;;12.82;64.22;97701.66;4469073;32;34716;-49
2021/11/28 11:43:11;;;;;;;14.05;10.02;;;;;;;12.98;64.44;97702.69;4469068;32;35030;-50